createdAt,value
2023-03-08T00:02:22.039Z,96774.19
2023-03-08T00:05:10.785Z,96778.50
2023-03-08T00:07:58.622Z,96784.41
2023-03-08T00:10:46.551Z,96783.59
2023-03-08T00:13:34.803Z,96790.34
2023-03-08T00:16:22.512Z,96801.84
2023-03-08T00:19:11.714Z,96796.41
2023-03-08T00:21:59.890Z,96790.34
2023-03-08T00:24:48.179Z,96788.38
2023-03-08T00:27:36.427Z,96791.00
2023-03-08T00:30:24.045Z,96786.59
2023-03-08T00:33:12.041Z,96794.78
2023-03-08T00:36:03.247Z,96793.94
2023-03-08T00:38:52.513Z,96787.72
2023-03-08T00:41:40.604Z,96789.91
2023-03-08T00:44:28.587Z,96793.34
2023-03-08T00:47:16.816Z,96780.88
2023-03-08T00:50:04.790Z,96792.69
2023-03-08T00:52:53.812Z,96789.06
2023-03-08T00:55:48.365Z,96787.13
2023-03-08T00:58:38.053Z,96781.84
2023-03-08T01:01:25.669Z,96782.50
2023-03-08T01:04:14.128Z,96772.59
2023-03-08T01:07:02.354Z,96773.97
2023-03-08T01:09:55.647Z,96777.56
2023-03-08T01:12:43.519Z,96783.34
2023-03-08T01:15:31.096Z,96783.34
2023-03-08T01:18:19.333Z,96783.50
2023-03-08T01:21:07.655Z,96793.34
2023-03-08T01:23:55.658Z,96787.91
2023-03-08T01:26:44.740Z,96777.41
2023-03-08T01:29:32.778Z,96785.97
2023-03-08T01:32:20.744Z,96798.28
2023-03-08T01:35:09.459Z,96787.63
2023-03-08T01:37:57.469Z,96777.25
2023-03-08T01:40:45.470Z,96771.97
2023-03-08T01:43:36.903Z,96774.47
2023-03-08T01:46:31.874Z,96772.28
2023-03-08T01:49:22.913Z,96775.59
2023-03-08T01:52:14.465Z,96773.97
2023-03-08T01:55:06.856Z,96775.91
2023-03-08T01:57:56.997Z,96778.53
2023-03-08T02:00:46.312Z,96786.59
2023-03-08T02:03:34.144Z,96778.69
2023-03-08T02:06:22.697Z,96773.59
2023-03-08T02:09:10.920Z,96768.50
2023-03-08T02:12:03.077Z,96779.31
2023-03-08T02:14:52.127Z,96776.84
2023-03-08T02:17:42.726Z,96760.09
2023-03-08T02:20:32.338Z,96764.38
2023-03-08T02:23:23.883Z,96765.81
2023-03-08T02:26:12.203Z,96760.56
2023-03-08T02:29:00.137Z,96768.59
2023-03-08T02:31:48.010Z,96768.28
2023-03-08T02:34:35.963Z,96761.38
2023-03-08T02:37:23.912Z,96759.72
2023-03-08T02:40:14.813Z,96745.44
2023-03-08T02:43:03.401Z,96741.31
2023-03-08T02:45:51.339Z,96745.91
2023-03-08T02:48:39.403Z,96744.25
2023-03-08T02:51:27.189Z,96743.94
2023-03-08T02:54:16.930Z,96746.88
2023-03-08T02:57:06.230Z,96756.41
2023-03-08T02:59:53.849Z,96755.75
2023-03-08T03:02:41.752Z,96760.34
2023-03-08T03:05:29.741Z,96758.16
2023-03-08T03:08:17.785Z,96759.00
2023-03-08T03:11:13.556Z,96759.16
2023-03-08T03:14:03.182Z,96756.69
2023-03-08T03:16:50.995Z,96755.34
2023-03-08T03:19:39.770Z,96751.03
2023-03-08T03:22:31.086Z,96753.03
2023-03-08T03:25:19.195Z,96749.72
2023-03-08T03:28:07.140Z,96744.44
2023-03-08T03:30:56.000Z,96741.13
2023-03-08T03:33:44.540Z,96732.59
2023-03-08T03:36:34.325Z,96734.53
2023-03-08T03:39:22.419Z,96741.59
2023-03-08T03:42:11.251Z,96734.84
2023-03-08T03:44:59.276Z,96737.63
2023-03-08T03:47:48.530Z,96736.84
2023-03-08T03:50:38.376Z,96738.38
2023-03-08T03:53:27.514Z,96740.81
2023-03-08T03:56:17.731Z,96740.59
2023-03-08T03:59:05.778Z,96742.88
2023-03-08T04:01:53.458Z,96738.56
2023-03-08T04:04:42.620Z,96728.88
2023-03-08T04:07:30.457Z,96743.16
2023-03-08T04:10:18.861Z,96732.97
2023-03-08T04:13:07.198Z,96728.34
2023-03-08T04:15:55.077Z,96725.38
2023-03-08T04:18:43.882Z,96738.50
2023-03-08T04:21:34.112Z,96732.22
2023-03-08T04:24:22.189Z,96736.09
2023-03-08T04:27:11.642Z,96736.09
2023-03-08T04:29:59.627Z,96730.84
2023-03-08T04:32:47.538Z,96723.75
2023-03-08T04:35:35.796Z,96729.78
2023-03-08T04:38:25.387Z,96710.75
2023-03-08T04:41:13.587Z,96720.19
2023-03-08T04:44:01.637Z,96709.69
2023-03-08T04:46:50.199Z,96709.97
2023-03-08T04:49:37.907Z,96700.72
2023-03-08T04:52:26.193Z,96697.09
2023-03-08T04:55:17.689Z,96699.56
2023-03-08T04:58:05.742Z,96701.50
2023-03-08T05:00:53.630Z,96696.63
2023-03-08T05:03:42.340Z,96696.50
2023-03-08T05:06:29.811Z,96690.03
2023-03-08T05:09:17.781Z,96692.66
2023-03-08T05:12:07.788Z,96686.34
2023-03-08T05:14:55.924Z,96672.56
2023-03-08T05:17:44.013Z,96666.94
2023-03-08T05:20:32.028Z,96657.72
2023-03-08T05:23:20.164Z,96657.84
2023-03-08T05:26:09.382Z,96659.66
2023-03-08T05:28:58.573Z,96663.41
2023-03-08T05:31:46.718Z,96666.16
2023-03-08T05:34:34.849Z,96670.06
2023-03-08T05:37:27.340Z,96662.78
2023-03-08T05:40:15.804Z,96660.44
2023-03-08T05:43:03.706Z,96664.34
2023-03-08T05:46:03.524Z,96661.31
2023-03-08T05:48:51.426Z,96660.53
2023-03-08T05:51:39.391Z,96667.84
2023-03-08T05:54:27.508Z,96670.75
2023-03-08T05:57:15.461Z,96664.16
2023-03-08T06:00:04.618Z,96673.13
2023-03-08T06:02:53.705Z,96676.88
2023-03-08T06:05:41.913Z,96679.09
2023-03-08T06:08:29.990Z,96675.09
2023-03-08T06:11:18.917Z,96685.06
2023-03-08T06:14:06.843Z,96694.72
2023-03-08T06:16:56.879Z,96698.31
2023-03-08T06:19:47.226Z,96689.75
2023-03-08T06:22:35.596Z,96694.88
2023-03-08T06:25:23.626Z,96688.78
2023-03-08T06:28:11.449Z,96684.22
2023-03-08T06:31:00.086Z,96686.72
2023-03-08T06:33:48.185Z,96683.94
2023-03-08T06:36:37.514Z,96674.16
2023-03-08T06:39:25.576Z,96685.16
2023-03-08T06:42:13.679Z,96678.00
2023-03-08T06:45:03.008Z,96676.03
2023-03-08T06:47:50.778Z,96670.50
2023-03-08T06:50:38.940Z,96662.34
2023-03-08T06:53:28.445Z,96673.22
2023-03-08T06:56:17.929Z,96671.97
2023-03-08T06:59:06.104Z,96678.41
2023-03-08T07:01:54.407Z,96671.63
2023-03-08T07:04:42.540Z,96675.59
2023-03-08T07:07:30.865Z,96671.69
2023-03-08T07:10:21.656Z,96668.78
2023-03-08T07:13:09.663Z,96674.13
2023-03-08T07:15:58.116Z,96665.66
2023-03-08T07:18:45.827Z,96664.09
2023-03-08T07:21:33.724Z,96667.09
2023-03-08T07:24:22.011Z,96659.31
2023-03-08T07:27:11.462Z,96655.09
2023-03-08T07:29:59.340Z,96651.19
2023-03-08T07:32:47.266Z,96658.91
2023-03-08T07:35:35.502Z,96665.22
2023-03-08T07:38:23.750Z,96662.13
2023-03-08T07:41:11.561Z,96655.78
2023-03-08T07:44:02.384Z,96658.25
2023-03-08T07:46:50.021Z,96653.81
2023-03-08T07:49:38.380Z,96652.03
2023-03-08T07:52:29.156Z,96660.56
2023-03-08T07:55:17.411Z,96659.88
2023-03-08T07:58:05.160Z,96676.94
2023-03-08T08:00:54.119Z,96675.06
2023-03-08T08:03:42.222Z,96667.47
2023-03-08T08:06:30.432Z,96681.88
2023-03-08T08:09:18.798Z,96684.72
2023-03-08T08:12:07.293Z,96682.25
2023-03-08T08:14:55.071Z,96683.72
2023-03-08T08:17:44.472Z,96679.09
2023-03-08T08:20:32.530Z,96679.56
2023-03-08T08:23:20.457Z,96681.25
2023-03-08T08:26:11.055Z,96678.75
2023-03-08T08:28:59.121Z,96667.75
2023-03-08T08:31:47.276Z,96656.56
2023-03-08T08:34:36.824Z,96652.97
2023-03-08T08:37:24.556Z,96645.13
2023-03-08T08:40:13.448Z,96636.13
2023-03-08T08:43:01.453Z,96627.50
2023-03-08T08:45:54.550Z,96614.75
2023-03-08T08:48:43.230Z,96600.25
2023-03-08T08:51:32.965Z,96596.78
2023-03-08T08:54:21.264Z,96583.66
2023-03-08T08:57:09.447Z,96578.34
2023-03-08T08:59:57.487Z,96577.38
2023-03-08T09:02:45.517Z,96563.59
2023-03-08T09:05:34.433Z,96563.44
2023-03-08T09:08:23.670Z,96562.59
2023-03-08T09:11:12.559Z,96554.88
2023-03-08T09:14:02.374Z,96551.81
2023-03-08T09:16:50.283Z,96531.84
2023-03-08T09:19:38.471Z,96533.59
2023-03-08T09:22:29.141Z,96528.56
2023-03-08T09:25:19.572Z,96519.41
2023-03-08T09:28:07.611Z,96506.75
2023-03-08T09:30:55.431Z,96502.66
2023-03-08T09:33:45.844Z,96500.72
2023-03-08T09:36:33.622Z,96489.75
2023-03-08T09:39:21.780Z,96485.56
2023-03-08T09:42:22.322Z,96473.72
2023-03-08T09:45:25.405Z,96466.91
2023-03-08T09:48:18.615Z,96441.56
2023-03-08T09:51:12.300Z,96430.44
2023-03-08T09:54:04.946Z,96419.72
2023-03-08T09:56:56.356Z,96419.63
2023-03-08T09:59:51.569Z,96426.66
2023-03-08T10:02:48.518Z,96418.66
2023-03-08T10:05:41.766Z,96408.09
2023-03-08T10:08:32.557Z,96398.22
2023-03-08T10:11:25.423Z,96398.91
2023-03-08T10:14:20.517Z,96398.47
2023-03-08T10:17:14.345Z,96395.78
2023-03-08T10:20:07.993Z,96381.84
2023-03-08T10:22:59.381Z,96413.94
2023-03-08T10:25:47.811Z,96396.22
2023-03-08T10:28:35.567Z,96385.22
2023-03-08T10:31:26.850Z,96387.91
2023-03-08T10:34:19.188Z,96395.31
2023-03-08T10:37:08.897Z,96385.34
2023-03-08T10:39:59.768Z,96390.97
2023-03-08T10:42:53.436Z,96391.63
2023-03-08T10:45:41.139Z,96392.63
2023-03-08T10:48:29.429Z,96398.16
2023-03-08T10:51:21.032Z,96393.75
2023-03-08T10:54:16.867Z,96378.53
2023-03-08T10:57:05.129Z,96373.22
2023-03-08T10:59:53.503Z,96371.78
2023-03-08T11:02:41.527Z,96381.66
2023-03-08T11:05:29.737Z,96377.06
2023-03-08T11:08:22.055Z,96371.06
2023-03-08T11:11:13.270Z,96364.09
2023-03-08T11:14:01.027Z,96367.34
2023-03-08T11:17:09.440Z,96361.31
2023-03-08T11:20:11.105Z,96357.91
2023-03-08T11:23:10.480Z,96342.75
2023-03-08T11:26:10.538Z,96354.06
2023-03-08T11:29:12.762Z,96345.53
2023-03-08T11:32:10.682Z,96350.91
2023-03-08T11:35:12.584Z,96349.50
2023-03-08T11:38:07.385Z,96346.09
2023-03-08T11:41:07.528Z,96336.47
2023-03-08T11:44:14.133Z,96339.44
2023-03-08T11:47:33.201Z,96326.81
2023-03-08T11:50:24.516Z,96322.75
2023-03-08T11:53:19.935Z,96317.22
2023-03-08T11:56:36.486Z,96311.50
2023-03-08T11:59:34.624Z,96308.41
2023-03-08T12:02:25.919Z,96299.69
2023-03-08T12:05:18.210Z,96289.03
2023-03-08T12:08:16.882Z,96288.34
2023-03-08T12:11:11.461Z,96281.78
2023-03-08T12:14:13.940Z,96265.72
2023-03-08T12:17:10.273Z,96283.81
2023-03-08T12:19:58.318Z,96279.06
2023-03-08T12:22:48.886Z,96262.66
2023-03-08T12:25:40.072Z,96258.53
2023-03-08T12:28:33.837Z,96255.94
2023-03-08T12:31:29.615Z,96252.00
2023-03-08T12:34:29.211Z,96240.00
2023-03-08T12:37:23.229Z,96240.50
2023-03-08T12:40:37.135Z,96231.97
2023-03-08T12:43:31.955Z,96220.00
2023-03-08T12:46:19.742Z,96193.41
2023-03-08T12:49:22.088Z,96204.38
2023-03-08T12:52:28.023Z,96209.00
2023-03-08T12:55:22.115Z,96199.28
2023-03-08T12:58:18.846Z,96184.34
2023-03-08T13:01:24.721Z,96193.22
2023-03-08T13:07:22.340Z,96187.44
2023-03-08T13:10:21.558Z,96191.22
2023-03-08T13:13:37.976Z,96190.06
2023-03-08T13:16:35.904Z,96179.19
2023-03-08T13:19:28.436Z,96182.91
2023-03-08T13:22:23.969Z,96185.03
2023-03-08T13:25:21.935Z,96183.69
2023-03-08T13:28:13.061Z,96181.16
2023-03-08T13:31:03.861Z,96183.09
2023-03-08T13:33:53.599Z,96173.84
2023-03-08T13:36:41.368Z,96171.78
2023-03-08T13:39:32.468Z,96182.34
2023-03-08T13:42:24.714Z,96184.28
2023-03-08T13:45:18.464Z,96170.34
2023-03-08T13:48:10.202Z,96177.25
2023-03-08T13:50:59.394Z,96180.50
2023-03-08T13:53:47.808Z,96173.28
2023-03-08T13:56:38.304Z,96169.22
2023-03-08T13:59:27.063Z,96162.03
2023-03-08T14:02:22.503Z,96162.50
2023-03-08T14:05:19.338Z,96161.81
2023-03-08T14:08:18.310Z,96166.38
2023-03-08T14:11:14.331Z,96156.81
2023-03-08T14:14:07.190Z,96152.63
2023-03-08T14:16:56.276Z,96142.69
2023-03-08T14:19:44.295Z,96117.47
2023-03-08T14:22:39.657Z,96120.16
2023-03-08T14:25:30.551Z,96113.00
2023-03-08T14:28:41.043Z,96110.91
2023-03-08T14:31:31.784Z,96095.44
2023-03-08T14:34:21.849Z,96093.91
2023-03-08T14:37:22.062Z,96101.72
2023-03-08T14:40:33.005Z,96107.06
2023-03-08T14:43:23.099Z,96112.81
2023-03-08T14:46:19.140Z,96111.78
2023-03-08T14:49:22.198Z,96117.34
2023-03-08T14:52:21.350Z,96099.50
2023-03-08T14:55:23.049Z,96099.59
2023-03-08T14:58:14.004Z,96101.03
2023-03-08T15:01:03.336Z,96091.13
2023-03-08T15:03:50.940Z,96087.00
2023-03-08T15:06:41.470Z,96095.53
2023-03-08T15:09:30.075Z,96095.44
2023-03-08T15:12:18.196Z,96080.19
2023-03-08T15:15:14.316Z,96085.38
2023-03-08T15:18:01.915Z,96082.00
2023-03-08T15:20:51.164Z,96087.69
2023-03-08T15:23:40.301Z,96098.44
2023-03-08T15:26:31.522Z,96095.25
2023-03-08T15:29:27.948Z,96111.91
2023-03-08T15:32:15.704Z,96105.94
2023-03-08T15:35:03.641Z,96107.44
2023-03-08T15:37:52.486Z,96106.19
2023-03-08T15:40:42.977Z,96100.41
2023-03-08T15:43:31.693Z,96111.28
2023-03-08T15:46:19.368Z,96114.63
2023-03-08T15:49:08.529Z,96120.72
2023-03-08T15:51:56.569Z,96117.19
2023-03-08T15:54:47.303Z,96099.16
2023-03-08T15:57:37.563Z,96099.81
2023-03-08T16:00:26.682Z,96085.47
2023-03-08T16:03:15.464Z,96090.31
2023-03-08T16:06:04.083Z,96086.00
2023-03-08T16:08:52.209Z,96088.31
2023-03-08T16:11:40.138Z,96089.50
2023-03-08T16:14:29.426Z,96083.22
2023-03-08T16:17:17.542Z,96083.03
2023-03-08T16:20:06.412Z,96073.28
2023-03-08T16:22:55.600Z,96068.97
2023-03-08T16:25:43.712Z,96053.63
2023-03-08T16:28:31.538Z,96046.56
2023-03-08T16:31:23.148Z,96048.94
2023-03-08T16:34:12.653Z,96052.22
2023-03-08T16:37:00.309Z,96059.91
2023-03-08T16:39:50.740Z,96053.84
2023-03-08T16:42:38.783Z,96047.75
2023-03-08T16:45:26.433Z,96047.53
2023-03-08T16:48:16.008Z,96052.25
2023-03-08T16:51:04.071Z,96058.38
2023-03-08T16:53:52.494Z,96057.31
2023-03-08T16:56:41.398Z,96055.00
2023-03-08T16:59:29.438Z,96043.47
2023-03-08T17:02:18.946Z,96041.97
2023-03-08T17:05:10.922Z,96048.63
2023-03-08T17:07:58.769Z,96053.84
2023-03-08T17:10:47.125Z,96047.75
2023-03-08T17:13:35.129Z,96055.97
2023-03-08T17:16:24.288Z,96055.78
2023-03-08T17:19:14.458Z,96067.31
2023-03-08T17:22:03.636Z,96059.22
2023-03-08T17:24:51.436Z,96062.31
2023-03-08T17:27:39.477Z,96055.19
2023-03-08T17:30:27.307Z,96064.91
2023-03-08T17:33:15.728Z,96061.88
2023-03-08T17:36:05.165Z,96069.81
2023-03-08T17:38:55.644Z,96067.94
2023-03-08T17:41:44.786Z,96073.84
2023-03-08T17:44:32.426Z,96076.13
2023-03-08T17:47:20.497Z,96073.03
2023-03-08T17:50:12.872Z,96079.53
2023-03-08T17:53:01.040Z,96085.19
2023-03-08T17:55:50.708Z,96079.72
2023-03-08T17:58:38.617Z,96084.44
2023-03-08T18:01:28.264Z,96075.06
2023-03-08T18:04:16.202Z,96083.56
2023-03-08T18:07:04.440Z,96096.16
2023-03-08T18:09:52.656Z,96100.00
2023-03-08T18:12:42.047Z,96091.63
2023-03-08T18:15:29.725Z,96081.22
2023-03-08T18:18:17.683Z,96073.03
2023-03-08T18:21:13.108Z,96084.84
2023-03-08T18:24:01.863Z,96085.00
2023-03-08T18:26:49.778Z,96080.19
2023-03-08T18:29:38.751Z,96075.63
2023-03-08T18:32:28.042Z,96084.66
2023-03-08T18:35:16.289Z,96100.31
2023-03-08T18:38:04.342Z,96083.28
2023-03-08T18:40:52.398Z,96088.00
2023-03-08T18:43:40.977Z,96074.78
2023-03-08T18:46:31.690Z,96060.75
2023-03-08T18:49:19.760Z,96058.75
2023-03-08T18:52:07.673Z,96062.41
2023-03-08T18:54:55.718Z,96061.22
2023-03-08T18:57:43.534Z,96060.38
2023-03-08T19:00:31.606Z,96042.91
2023-03-08T19:03:21.169Z,96037.66
2023-03-08T19:06:09.610Z,96042.50
2023-03-08T19:08:57.831Z,96018.72
2023-03-08T19:11:47.985Z,96017.69
2023-03-08T19:14:35.908Z,96033.56
2023-03-08T19:17:23.902Z,96055.53
2023-03-08T19:20:14.220Z,96059.63
2023-03-08T19:23:02.119Z,96049.03
2023-03-08T19:26:07.446Z,96057.41
2023-03-08T19:28:55.098Z,96037.09
2023-03-08T19:31:44.844Z,96043.38
2023-03-08T19:34:34.024Z,96041.16
2023-03-08T19:37:23.447Z,96054.78
2023-03-08T19:40:12.441Z,96057.41
2023-03-08T19:43:00.424Z,96064.13
2023-03-08T19:45:50.345Z,96071.47
2023-03-08T19:48:38.562Z,96056.59
2023-03-08T19:51:26.505Z,96059.22
2023-03-08T19:54:16.166Z,96068.59
2023-03-08T19:57:04.576Z,96067.59
2023-03-08T19:59:52.256Z,96063.75
2023-03-08T20:02:42.286Z,96069.41
2023-03-08T20:05:30.502Z,96086.91
2023-03-08T20:08:18.148Z,96082.25
2023-03-08T20:11:07.605Z,96073.31
2023-03-08T20:13:55.616Z,96069.03
2023-03-08T20:16:43.389Z,96082.66
2023-03-08T20:19:33.999Z,96079.16
2023-03-08T20:22:21.760Z,96076.34
2023-03-08T20:25:11.917Z,96071.03
2023-03-08T20:28:01.340Z,96069.41
2023-03-08T20:30:49.340Z,96064.13
2023-03-08T20:33:37.485Z,96072.69
2023-03-08T20:36:25.147Z,96072.69
2023-03-08T20:39:13.362Z,96066.97
2023-03-08T20:42:01.307Z,96088.56
2023-03-08T20:44:50.849Z,96086.13
2023-03-08T20:47:38.806Z,96087.09
2023-03-08T20:50:28.159Z,96083.47
2023-03-08T20:53:16.155Z,96090.97
2023-03-08T20:56:07.226Z,96094.63
2023-03-08T20:58:57.184Z,96086.50
2023-03-08T21:01:46.719Z,96089.34
2023-03-08T21:04:34.989Z,96097.47
2023-03-08T21:07:22.586Z,96092.38
2023-03-08T21:10:11.603Z,96092.75
2023-03-08T21:12:59.827Z,96093.75
2023-03-08T21:15:48.567Z,96088.84
2023-03-08T21:18:37.550Z,96092.50
2023-03-08T21:21:28.194Z,96090.22
2023-03-08T21:24:18.036Z,96088.97
2023-03-08T21:27:05.958Z,96080.44
2023-03-08T21:29:55.152Z,96085.72
2023-03-08T21:32:42.934Z,96084.06
2023-03-08T21:35:32.092Z,96089.75
2023-03-08T21:38:19.971Z,96088.31
2023-03-08T21:41:16.156Z,96087.47
2023-03-08T21:44:05.448Z,96086.03
2023-03-08T21:46:56.359Z,96095.78
2023-03-08T21:49:44.493Z,96083.78
2023-03-08T21:52:33.895Z,96086.63
2023-03-08T21:55:21.608Z,96086.63
2023-03-08T21:58:10.218Z,96083.38
2023-03-08T22:00:57.947Z,96067.88
2023-03-08T22:03:45.963Z,96073.19
2023-03-08T22:06:34.372Z,96052.84
2023-03-08T22:09:26.536Z,96036.19
2023-03-08T22:12:14.943Z,96029.88
2023-03-08T22:15:02.577Z,96040.44
2023-03-08T22:17:50.563Z,96054.41
2023-03-08T22:20:38.600Z,96062.53
2023-03-08T22:23:26.902Z,96056.22
2023-03-08T22:26:16.141Z,96054.41
2023-03-08T22:29:04.186Z,96055.81
2023-03-08T22:31:52.243Z,96052.31
2023-03-08T22:34:40.093Z,96052.72
2023-03-08T22:37:27.986Z,96048.00
2023-03-08T22:40:18.295Z,96049.59
2023-03-08T22:43:07.286Z,96034.31
2023-03-08T22:45:55.141Z,96031.44
2023-03-08T22:48:43.232Z,96032.56
2023-03-08T22:51:31.809Z,96034.38
2023-03-08T22:54:22.430Z,96030.69
2023-03-08T22:57:10.348Z,96032.75
2023-03-08T23:00:00.026Z,96035.41
2023-03-08T23:02:48.896Z,96043.50
2023-03-08T23:05:36.580Z,96039.84
2023-03-08T23:08:24.483Z,96038.59
2023-03-08T23:11:13.053Z,96027.84
2023-03-08T23:14:01.015Z,96029.66
2023-03-08T23:16:50.663Z,96033.94
2023-03-08T23:19:38.663Z,96027.22
2023-03-08T23:22:27.187Z,96024.38
2023-03-08T23:25:16.486Z,96037.41
2023-03-08T23:28:04.563Z,96029.28
2023-03-08T23:30:52.527Z,96032.94
2023-03-08T23:33:42.305Z,96016.28
2023-03-08T23:36:32.319Z,96015.44
2023-03-08T23:39:20.312Z,96013.44
2023-03-08T23:42:08.587Z,96015.06
2023-03-08T23:44:56.208Z,96020.16
2023-03-08T23:47:44.305Z,96020.81
2023-03-08T23:50:34.032Z,96016.34
2023-03-08T23:53:22.029Z,96002.56
2023-03-08T23:56:19.559Z,96012.50
2023-03-08T23:59:13.231Z,96000.50
